createdAt,value
2023-02-13T00:00:54.144Z,44.33
2023-02-13T00:03:24.511Z,39.92
2023-02-13T00:05:56.882Z,32.90
2023-02-13T00:08:26.693Z,36.60
2023-02-13T00:10:56.811Z,35.22
2023-02-13T00:13:26.782Z,41.67
2023-02-13T00:16:00.653Z,37.65
2023-02-13T00:18:31.955Z,41.10
2023-02-13T00:21:07.362Z,38.72
2023-02-13T00:23:38.513Z,36.80
2023-02-13T00:26:10.203Z,37.30
2023-02-13T00:28:40.672Z,42.78
2023-02-13T00:31:13.248Z,37.95
2023-02-13T00:33:43.296Z,41.50
2023-02-13T00:36:17.848Z,43.90
2023-02-13T00:41:18.927Z,42.35
2023-02-13T00:43:50.034Z,45.83
2023-02-13T00:46:20.895Z,44.72
2023-02-13T00:48:50.862Z,41.42
2023-02-13T00:51:23.218Z,44.95
2023-02-13T00:53:52.983Z,41.58
2023-02-13T00:56:22.939Z,40.88
2023-02-13T00:58:52.690Z,40.45
2023-02-13T01:01:22.572Z,40.13
2023-02-13T01:03:52.384Z,39.95
2023-02-13T01:06:24.886Z,41.35
2023-02-13T01:08:54.653Z,42.80
2023-02-13T01:11:24.406Z,42.03
2023-02-13T01:13:54.122Z,40.92
2023-02-13T01:16:24.044Z,41.65
2023-02-13T01:18:53.891Z,46.53
2023-02-13T01:21:26.458Z,41.22
2023-02-13T01:23:56.406Z,40.03
2023-02-13T01:26:28.626Z,43.60
2023-02-13T01:28:58.417Z,42.75
2023-02-13T01:31:28.637Z,43.47
2023-02-13T01:33:59.988Z,45.20
2023-02-13T01:36:32.382Z,42.70
2023-02-13T01:39:02.647Z,40.95
2023-02-13T01:41:32.435Z,40.50
2023-02-13T01:44:03.860Z,39.70
2023-02-13T01:46:37.915Z,41.55
2023-02-13T01:49:14.414Z,40.67
2023-02-13T01:51:47.606Z,41.88
2023-02-13T01:54:20.011Z,40.50
2023-02-13T01:56:52.314Z,42.58
2023-02-13T01:59:27.447Z,43.47
2023-02-13T02:01:57.571Z,46.33
2023-02-13T02:04:31.408Z,46.30
2023-02-13T02:07:06.170Z,45.97
2023-02-13T02:09:39.646Z,42.15
2023-02-13T02:12:13.993Z,40.40
2023-02-13T02:14:45.153Z,41.92
2023-02-13T02:17:15.109Z,46.75
2023-02-13T02:19:53.689Z,47.38
2023-02-13T02:23:00.492Z,43.08
2023-02-13T02:25:55.323Z,44.13
2023-02-13T02:29:00.363Z,44.65
2023-02-13T02:32:00.852Z,44.90
2023-02-13T02:34:39.907Z,48.92
2023-02-13T02:37:23.691Z,49.58
2023-02-13T02:40:04.257Z,51.42
2023-02-13T02:42:44.592Z,49.70
2023-02-13T02:45:24.531Z,45.13
2023-02-13T02:48:15.055Z,44.72
2023-02-13T02:50:49.339Z,49.50
2023-02-13T02:53:31.376Z,44.38
2023-02-13T02:56:08.616Z,44.65
2023-02-13T02:58:56.687Z,47.40
2023-02-13T03:01:42.149Z,48.67
2023-02-13T03:04:33.367Z,54.85
2023-02-13T03:07:08.109Z,47.00
2023-02-13T03:09:55.287Z,44.17
2023-02-13T03:12:42.265Z,43.08
2023-02-13T03:15:12.402Z,46.65
2023-02-13T03:17:54.771Z,50.72
2023-02-13T03:20:53.508Z,46.13
2023-02-13T03:23:33.014Z,43.88
2023-02-13T03:26:46.242Z,46.85
2023-02-13T03:29:37.160Z,42.25
2023-02-13T03:32:14.605Z,47.75
2023-02-13T03:35:07.229Z,52.65
2023-02-13T03:37:58.842Z,51.22
2023-02-13T03:40:33.966Z,46.63
2023-02-13T03:43:12.077Z,51.20
2023-02-13T03:45:58.119Z,46.15
2023-02-13T03:48:44.315Z,45.65
2023-02-13T03:51:22.475Z,51.33
2023-02-13T03:53:58.734Z,51.35
2023-02-13T03:56:42.946Z,53.60
2023-02-13T03:59:22.800Z,51.95
2023-02-13T04:02:01.504Z,54.88
2023-02-13T04:04:38.069Z,57.35
2023-02-13T04:07:12.069Z,60.58
2023-02-13T04:09:45.906Z,61.15
2023-02-13T04:12:21.584Z,58.05
2023-02-13T04:14:55.934Z,60.92
2023-02-13T04:17:29.706Z,57.20
2023-02-13T04:19:59.674Z,55.10
2023-02-13T04:22:29.471Z,57.72
2023-02-13T04:25:02.017Z,56.78
2023-02-13T04:27:31.929Z,61.55
2023-02-13T04:30:01.699Z,54.28
2023-02-13T04:32:31.684Z,54.28
2023-02-13T04:35:02.043Z,63.63
2023-02-13T04:37:31.826Z,57.70
2023-02-13T04:40:04.279Z,54.75
2023-02-13T04:42:34.132Z,60.60
2023-02-13T04:45:03.974Z,66.07
2023-02-13T04:47:33.790Z,70.03
2023-02-13T04:50:03.564Z,65.07
2023-02-13T04:52:33.404Z,63.63
2023-02-13T04:55:06.187Z,55.70
2023-02-13T04:57:35.969Z,64.90
2023-02-13T05:00:05.964Z,71.47
2023-02-13T05:02:35.722Z,63.35
2023-02-13T05:05:05.446Z,53.35
2023-02-13T05:07:35.206Z,99.90
2023-02-13T05:10:08.391Z,112.38
2023-02-13T05:12:38.136Z,96.18
2023-02-13T05:15:08.672Z,67.70
2023-02-13T05:17:38.427Z,105.97
2023-02-13T05:20:10.045Z,86.38
2023-02-13T05:22:52.310Z,62.80
2023-02-13T05:25:24.750Z,101.82
2023-02-13T05:27:54.506Z,121.88
2023-02-13T05:30:22.032Z,78.88
2023-02-13T05:32:52.472Z,65.05
2023-02-13T05:35:22.444Z,65.40
2023-02-13T05:37:52.259Z,59.05
2023-02-13T05:40:24.731Z,48.33
2023-02-13T05:42:57.096Z,53.75
2023-02-13T05:45:26.869Z,50.47
2023-02-13T05:47:56.627Z,45.65
2023-02-13T05:50:26.400Z,57.13
2023-02-13T05:52:56.152Z,48.90
2023-02-13T05:55:28.554Z,49.38
2023-02-13T05:58:00.084Z,55.92
2023-02-13T06:00:30.066Z,62.92
2023-02-13T06:02:59.969Z,51.65
2023-02-13T06:05:29.791Z,51.25
2023-02-13T06:07:59.630Z,56.35
2023-02-13T06:10:32.159Z,58.75
2023-02-13T06:13:02.002Z,55.95
2023-02-13T06:15:31.762Z,58.67
2023-02-13T06:18:01.497Z,60.28
2023-02-13T06:20:31.239Z,52.70
2023-02-13T06:23:00.975Z,53.47
2023-02-13T06:25:33.678Z,51.72
2023-02-13T06:28:07.270Z,47.28
2023-02-13T06:30:37.161Z,49.45
2023-02-13T06:33:06.915Z,53.58
2023-02-13T06:35:36.734Z,52.67
2023-02-13T06:38:06.451Z,56.17
2023-02-13T06:40:38.742Z,65.97
2023-02-13T06:43:08.548Z,56.53
2023-02-13T06:45:39.628Z,61.05
2023-02-13T06:48:09.637Z,55.72
2023-02-13T06:50:39.348Z,58.22
2023-02-13T06:53:09.090Z,54.55
2023-02-13T06:55:41.609Z,54.00
2023-02-13T06:58:11.411Z,51.17
2023-02-13T07:00:41.280Z,50.08
2023-02-13T07:03:11.188Z,49.50
2023-02-13T07:05:43.428Z,54.92
2023-02-13T07:08:14.156Z,52.30
2023-02-13T07:10:46.545Z,49.90
2023-02-13T07:13:16.495Z,52.83
2023-02-13T07:15:46.327Z,55.22
2023-02-13T07:18:16.261Z,62.53
2023-02-13T07:20:46.047Z,48.28
2023-02-13T07:23:15.807Z,48.47
2023-02-13T07:25:48.091Z,49.75
2023-02-13T07:28:17.981Z,49.05
2023-02-13T07:30:47.788Z,54.40
2023-02-13T07:33:17.552Z,50.20
2023-02-13T07:35:50.136Z,50.00
2023-02-13T07:38:22.584Z,50.28
2023-02-13T07:40:55.276Z,47.47
2023-02-13T07:43:25.295Z,46.22
2023-02-13T07:45:56.787Z,50.78
2023-02-13T07:48:27.346Z,50.25
2023-02-13T07:50:57.737Z,62.85
2023-02-13T07:53:27.762Z,71.45
2023-02-13T07:56:00.347Z,58.80
2023-02-13T07:58:30.201Z,54.50
2023-02-13T08:01:00.040Z,51.65
2023-02-13T08:03:29.893Z,51.35
2023-02-13T08:05:59.868Z,52.17
2023-02-13T08:08:29.740Z,46.97
2023-02-13T08:11:19.939Z,51.38
2023-02-13T08:13:49.679Z,45.85
2023-02-13T08:16:19.479Z,46.90
2023-02-13T08:18:49.238Z,48.33
2023-02-13T08:21:18.978Z,41.25
2023-02-13T08:23:51.839Z,44.25
2023-02-13T08:26:24.190Z,42.22
2023-02-13T08:28:53.984Z,46.53
2023-02-13T08:31:23.890Z,40.10
2023-02-13T08:33:53.762Z,40.17
2023-02-13T08:36:23.514Z,41.60
2023-02-13T08:38:53.245Z,40.58
2023-02-13T08:41:26.173Z,37.55
2023-02-13T08:43:57.298Z,39.42
2023-02-13T08:46:27.107Z,33.88
2023-02-13T08:48:57.899Z,38.33
2023-02-13T08:51:27.650Z,37.80
2023-02-13T08:53:57.458Z,32.42
2023-02-13T08:56:29.902Z,31.13
2023-02-13T08:58:59.688Z,32.30
2023-02-13T09:01:29.660Z,33.15
2023-02-13T09:03:59.437Z,29.13
2023-02-13T09:06:30.931Z,38.20
2023-02-13T09:09:00.765Z,28.65
2023-02-13T09:11:33.083Z,27.98
2023-02-13T09:14:02.974Z,27.55
2023-02-13T09:16:32.789Z,28.50
2023-02-13T09:19:02.702Z,29.55
2023-02-13T09:21:32.453Z,26.98
2023-02-13T09:24:02.276Z,28.40
2023-02-13T09:26:34.667Z,26.08
2023-02-13T09:29:04.462Z,24.88
2023-02-13T09:31:34.488Z,24.70
2023-02-13T09:34:04.429Z,25.42
2023-02-13T09:36:34.370Z,21.75
2023-02-13T09:39:04.159Z,27.27
2023-02-13T09:41:40.570Z,23.35
2023-02-13T09:44:34.103Z,23.35
2023-02-13T09:47:07.259Z,22.75
2023-02-13T09:49:41.439Z,23.00
2023-02-13T09:52:12.873Z,23.10
2023-02-13T09:54:42.651Z,18.75
2023-02-13T09:57:23.218Z,21.38
2023-02-13T10:00:00.886Z,21.17
2023-02-13T10:02:52.471Z,19.10
2023-02-13T10:05:58.096Z,17.58
2023-02-13T10:08:51.464Z,22.00
2023-02-13T10:11:49.378Z,20.83
2023-02-13T10:14:26.658Z,22.35
2023-02-13T10:17:02.667Z,22.25
2023-02-13T10:19:38.770Z,21.42
2023-02-13T10:22:14.399Z,18.50
2023-02-13T10:24:49.590Z,19.48
2023-02-13T10:27:24.781Z,20.08
2023-02-13T10:30:12.848Z,18.67
2023-02-13T10:32:50.431Z,21.40
2023-02-13T10:35:24.261Z,19.58
2023-02-13T10:37:58.256Z,17.52
2023-02-13T10:40:34.660Z,22.90
2023-02-13T10:43:11.956Z,19.75
2023-02-13T10:45:59.714Z,18.58
2023-02-13T10:48:48.473Z,21.83
2023-02-13T10:51:27.851Z,18.17
2023-02-13T10:54:15.133Z,19.98
2023-02-13T10:56:52.018Z,22.27
2023-02-13T10:59:46.584Z,20.08
2023-02-13T11:02:25.854Z,16.60
2023-02-13T11:05:02.113Z,18.20
2023-02-13T11:07:33.213Z,20.90
2023-02-13T11:10:08.372Z,22.20
2023-02-13T11:12:38.282Z,18.50
2023-02-13T11:15:11.156Z,29.27
2023-02-13T11:17:46.794Z,15.25
2023-02-13T11:20:30.943Z,14.50
2023-02-13T11:23:20.519Z,16.65
2023-02-13T11:26:00.264Z,17.75
2023-02-13T11:28:31.786Z,19.48
2023-02-13T11:31:14.785Z,17.05
2023-02-13T11:33:47.177Z,18.05
2023-02-13T11:36:18.748Z,17.25
2023-02-13T11:38:48.472Z,15.95
2023-02-13T11:41:22.067Z,20.25
2023-02-13T11:44:01.031Z,15.27
2023-02-13T11:46:32.546Z,15.40
2023-02-13T11:49:07.396Z,15.60
2023-02-13T11:51:45.985Z,19.48
2023-02-13T11:54:31.980Z,17.10
2023-02-13T11:57:05.044Z,14.43
2023-02-13T11:59:42.032Z,18.80
2023-02-13T12:02:21.634Z,13.25
2023-02-13T12:04:56.433Z,16.38
2023-02-13T12:07:29.221Z,18.10
2023-02-13T12:10:04.059Z,16.17
2023-02-13T12:12:40.323Z,16.08
2023-02-13T12:15:19.988Z,16.02
2023-02-13T12:17:56.440Z,19.45
2023-02-13T12:20:33.900Z,18.65
2023-02-13T12:23:10.345Z,15.45
2023-02-13T12:26:08.671Z,16.02
2023-02-13T12:29:01.787Z,16.25
2023-02-13T12:31:49.982Z,16.05
2023-02-13T12:34:55.610Z,16.35
2023-02-13T12:40:30.834Z,16.42
2023-02-13T12:43:21.174Z,17.17
2023-02-13T12:45:56.102Z,16.48
2023-02-13T12:48:38.311Z,16.67
2023-02-13T12:51:25.524Z,19.05
2023-02-13T12:54:24.256Z,18.17
2023-02-13T12:57:08.703Z,18.67
2023-02-13T12:59:54.164Z,14.55
2023-02-13T13:02:47.503Z,15.32
2023-02-13T13:05:34.561Z,21.63
2023-02-13T13:08:29.223Z,16.30
2023-02-13T13:11:14.925Z,18.40
2023-02-13T13:13:56.719Z,14.65
2023-02-13T13:16:34.555Z,20.17
2023-02-13T13:19:13.012Z,18.65
2023-02-13T13:21:53.563Z,15.95
2023-02-13T13:24:36.383Z,16.20
2023-02-13T13:27:17.748Z,16.80
2023-02-13T13:29:51.331Z,17.52
2023-02-13T13:32:24.008Z,12.43
2023-02-13T13:34:54.566Z,13.50
2023-02-13T13:37:35.008Z,12.23
2023-02-13T13:40:12.664Z,14.27
2023-02-13T13:42:50.580Z,10.63
2023-02-13T13:45:35.581Z,9.60
2023-02-13T13:48:23.384Z,11.75
2023-02-13T13:50:53.862Z,10.15
2023-02-13T13:53:25.574Z,11.90
2023-02-13T13:56:08.590Z,16.90
2023-02-13T13:58:51.182Z,13.05
2023-02-13T14:01:26.862Z,9.65
2023-02-13T14:03:58.682Z,9.00
2023-02-13T14:06:30.592Z,9.38
2023-02-13T14:09:03.652Z,9.90
2023-02-13T14:11:40.711Z,12.18
2023-02-13T14:14:49.647Z,12.18
2023-02-13T14:17:55.708Z,9.38
2023-02-13T14:20:41.505Z,13.18
2023-02-13T14:23:37.897Z,7.60
2023-02-13T14:26:34.583Z,12.73
2023-02-13T14:29:29.438Z,10.45
2023-02-13T14:32:18.716Z,9.60
2023-02-13T14:34:59.225Z,9.35
2023-02-13T14:37:36.656Z,12.20
2023-02-13T14:40:38.243Z,9.55
2023-02-13T14:43:40.396Z,11.75
2023-02-13T14:46:18.850Z,8.35
2023-02-13T14:48:55.659Z,11.10
2023-02-13T14:51:33.322Z,9.50
2023-02-13T14:54:08.620Z,11.98
2023-02-13T14:56:41.229Z,13.30
2023-02-13T14:59:18.812Z,9.90
2023-02-13T15:01:53.068Z,11.52
2023-02-13T15:04:33.765Z,9.57
2023-02-13T15:07:10.200Z,11.50
2023-02-13T15:09:42.562Z,10.93
2023-02-13T15:12:31.555Z,14.75
2023-02-13T15:15:03.024Z,9.48
2023-02-13T15:17:38.725Z,10.55
2023-02-13T15:20:19.304Z,12.13
2023-02-13T15:22:51.766Z,12.43
2023-02-13T15:25:32.052Z,11.13
2023-02-13T15:28:03.288Z,13.18
2023-02-13T15:30:36.280Z,8.38
2023-02-13T15:33:18.270Z,11.20
2023-02-13T15:35:48.841Z,8.63
2023-02-13T15:38:28.825Z,11.82
2023-02-13T15:41:02.885Z,17.40
2023-02-13T15:43:39.329Z,9.65
2023-02-13T15:46:21.241Z,14.80
2023-02-13T15:48:51.875Z,15.23
2023-02-13T15:51:23.373Z,13.55
2023-02-13T15:53:57.031Z,14.98
2023-02-13T15:56:27.550Z,14.03
2023-02-13T15:58:58.967Z,11.57
2023-02-13T16:01:28.945Z,21.73
2023-02-13T16:04:05.524Z,11.10
2023-02-13T16:06:36.845Z,13.88
2023-02-13T16:09:09.556Z,13.27
2023-02-13T16:11:41.339Z,15.50
2023-02-13T16:14:18.796Z,14.32
2023-02-13T16:16:55.488Z,11.30
2023-02-13T16:19:35.537Z,10.65
2023-02-13T16:22:18.910Z,12.23
2023-02-13T16:24:54.456Z,15.90
2023-02-13T16:27:28.781Z,17.65
2023-02-13T16:30:01.501Z,15.32
2023-02-13T16:32:33.854Z,18.83
2023-02-13T16:35:19.705Z,20.17
2023-02-13T16:37:56.289Z,20.13
2023-02-13T16:40:43.360Z,14.70
2023-02-13T16:43:42.013Z,14.70
2023-02-13T16:46:30.912Z,15.45
2023-02-13T16:49:28.920Z,14.80
2023-02-13T16:52:02.592Z,14.27
2023-02-13T16:54:38.453Z,14.00
2023-02-13T16:57:26.203Z,14.90
2023-02-13T17:00:05.511Z,15.45
2023-02-13T17:02:37.086Z,16.27
2023-02-13T17:05:23.199Z,13.93
2023-02-13T17:07:54.654Z,14.50
2023-02-13T17:10:27.245Z,18.17
2023-02-13T17:13:02.478Z,14.93
2023-02-13T17:15:34.115Z,15.77
2023-02-13T17:18:04.023Z,14.48
2023-02-13T17:20:36.238Z,15.95
2023-02-13T17:23:08.923Z,17.33
2023-02-13T17:25:41.295Z,16.35
2023-02-13T17:28:18.746Z,18.02
2023-02-13T17:30:50.100Z,16.08
2023-02-13T17:33:24.563Z,17.15
2023-02-13T17:35:55.032Z,18.73
2023-02-13T17:38:25.446Z,17.40
2023-02-13T17:40:55.208Z,18.25
2023-02-13T17:43:28.967Z,18.70
2023-02-13T17:46:01.213Z,17.92
2023-02-13T17:48:31.428Z,21.75
2023-02-13T17:51:01.493Z,17.83
2023-02-13T17:53:32.811Z,18.98
2023-02-13T17:56:02.563Z,23.88
2023-02-13T17:58:34.994Z,17.35
2023-02-13T18:01:04.725Z,18.15
2023-02-13T18:03:34.581Z,18.02
2023-02-13T18:06:04.372Z,17.30
2023-02-13T18:08:34.147Z,20.15
2023-02-13T18:11:03.961Z,20.08
2023-02-13T18:13:36.419Z,20.52
2023-02-13T18:16:11.600Z,18.65
2023-02-13T18:18:41.467Z,17.50
2023-02-13T18:21:12.659Z,20.33
2023-02-13T18:23:43.390Z,18.95
2023-02-13T18:26:13.624Z,17.85
2023-02-13T18:28:46.010Z,16.58
2023-02-13T18:31:16.717Z,19.08
2023-02-13T18:33:46.596Z,18.92
2023-02-13T18:36:16.365Z,18.48
2023-02-13T18:38:46.072Z,22.40
2023-02-13T18:41:15.941Z,22.42
2023-02-13T18:43:48.413Z,21.38
2023-02-13T18:46:18.222Z,23.05
2023-02-13T18:48:48.217Z,20.05
2023-02-13T18:51:20.833Z,18.40
2023-02-13T18:53:50.651Z,20.17
2023-02-13T18:56:20.503Z,21.85
2023-02-13T18:58:53.197Z,19.67
2023-02-13T19:01:24.793Z,21.65
2023-02-13T19:03:55.717Z,20.25
2023-02-13T19:06:27.681Z,23.80
2023-02-13T19:08:58.499Z,20.15
2023-02-13T19:11:29.412Z,22.63
2023-02-13T19:14:02.773Z,23.52
2023-02-13T19:16:34.953Z,21.02
2023-02-13T19:19:07.431Z,21.70
2023-02-13T19:21:39.374Z,22.23
2023-02-13T19:24:11.412Z,20.90
2023-02-13T19:26:41.263Z,24.90
2023-02-13T19:29:13.728Z,21.92
2023-02-13T19:31:43.684Z,26.42
2023-02-13T19:34:13.764Z,24.02
2023-02-13T19:36:43.565Z,25.52
2023-02-13T19:39:13.826Z,24.63
2023-02-13T19:41:44.584Z,26.70
2023-02-13T19:44:16.928Z,24.98
2023-02-13T19:46:46.742Z,22.98
2023-02-13T19:49:16.752Z,25.85
2023-02-13T19:51:47.351Z,26.00
2023-02-13T19:54:17.201Z,25.50
2023-02-13T19:56:47.622Z,26.02
2023-02-13T19:59:19.990Z,29.33
2023-02-13T20:01:49.784Z,30.50
2023-02-13T20:04:19.529Z,29.38
2023-02-13T20:06:49.686Z,28.13
2023-02-13T20:09:19.783Z,28.95
2023-02-13T20:11:50.573Z,25.27
2023-02-13T20:14:23.219Z,28.92
2023-02-13T20:16:53.076Z,27.50
2023-02-13T20:19:22.906Z,28.05
2023-02-13T20:21:53.144Z,30.38
2023-02-13T20:24:23.056Z,29.42
2023-02-13T20:26:52.907Z,34.58
2023-02-13T20:29:25.275Z,31.23
2023-02-13T20:31:55.281Z,29.35
2023-02-13T20:34:25.747Z,30.25
2023-02-13T20:36:55.884Z,29.88
2023-02-13T20:39:25.893Z,29.77
2023-02-13T20:41:55.799Z,34.42
2023-02-13T20:44:29.551Z,30.60
2023-02-13T20:47:00.287Z,31.50
2023-02-13T20:49:30.970Z,26.10
2023-02-13T20:52:00.916Z,27.73
2023-02-13T20:54:30.705Z,28.65
2023-02-13T20:57:00.556Z,29.40
2023-02-13T20:59:33.168Z,29.90
2023-02-13T21:02:02.924Z,33.08
2023-02-13T21:04:33.241Z,29.98
2023-02-13T21:07:03.617Z,32.58
2023-02-13T21:09:33.418Z,31.42
2023-02-13T21:12:03.188Z,35.15
2023-02-13T21:14:35.865Z,32.00
2023-02-13T21:17:05.925Z,33.42
2023-02-13T21:19:36.006Z,35.22
2023-02-13T21:22:13.794Z,34.25
2023-02-13T21:24:45.012Z,26.85
2023-02-13T21:27:14.908Z,31.85
2023-02-13T21:29:47.306Z,32.40
2023-02-13T21:32:17.477Z,37.10
2023-02-13T21:34:47.253Z,33.08
2023-02-13T21:37:17.203Z,34.13
2023-02-13T21:39:46.947Z,33.40
2023-02-13T21:42:18.029Z,36.25
2023-02-13T21:44:50.366Z,31.98
2023-02-13T21:47:20.208Z,36.10
2023-02-13T21:49:51.232Z,37.55
2023-02-13T21:52:21.042Z,39.30
2023-02-13T21:54:51.163Z,35.65
2023-02-13T21:57:20.904Z,39.25
2023-02-13T21:59:53.347Z,36.72
2023-02-13T22:02:23.210Z,37.55
2023-02-13T22:04:53.037Z,37.45
2023-02-13T22:07:22.804Z,39.15
2023-02-13T22:09:52.809Z,35.65
2023-02-13T22:12:22.579Z,38.85
2023-02-13T22:14:57.409Z,40.17
2023-02-13T22:17:27.428Z,38.13
2023-02-13T22:19:57.172Z,39.50
2023-02-13T22:22:27.024Z,40.05
2023-02-13T22:24:56.987Z,41.97
2023-02-13T22:27:26.823Z,41.88
2023-02-13T22:29:59.407Z,43.42
2023-02-13T22:32:29.329Z,41.45
2023-02-13T22:34:59.131Z,41.10
2023-02-13T22:37:29.023Z,39.78
2023-02-13T22:39:58.743Z,37.15
2023-02-13T22:42:28.539Z,44.88
2023-02-13T22:45:00.950Z,40.67
2023-02-13T22:47:31.898Z,45.95
2023-02-13T22:50:01.721Z,41.45
2023-02-13T22:52:31.578Z,45.83
2023-02-13T22:55:01.315Z,47.70
2023-02-13T22:57:31.082Z,40.55
2023-02-13T23:00:03.551Z,47.08
2023-02-13T23:02:33.630Z,44.25
2023-02-13T23:05:03.447Z,42.10
2023-02-13T23:07:33.201Z,38.70
2023-02-13T23:10:02.922Z,40.83
2023-02-13T23:12:39.832Z,38.30
2023-02-13T23:15:14.236Z,47.92
2023-02-13T23:17:57.264Z,46.15
2023-02-13T23:20:27.736Z,41.50
2023-02-13T23:22:57.582Z,40.13
2023-02-13T23:25:27.444Z,39.33
2023-02-13T23:27:58.136Z,40.60
2023-02-13T23:30:31.149Z,43.63
2023-02-13T23:33:02.203Z,42.63
2023-02-13T23:35:31.979Z,46.83
2023-02-13T23:38:01.761Z,44.28
2023-02-13T23:40:31.535Z,40.20
2023-02-13T23:43:01.320Z,46.33
2023-02-13T23:45:33.705Z,45.25
2023-02-13T23:48:03.474Z,40.67
2023-02-13T23:50:33.455Z,40.50
2023-02-13T23:53:03.431Z,44.65
2023-02-13T23:55:33.172Z,39.72
2023-02-13T23:58:03.376Z,39.92
